Time;durP1;ratioP1;P1;durP2;ratioP2;P2;SDS_P1;SDS_P2;PMS_P1;PMS_P2;Temp;Humidity;BMP_temperature;BMP_pressure;BME280_temperature;BME280_humidity;BME280_pressure;Samples;Min_cycle;Max_cycle;Signal;HPM_P1;HPM_P2
2022/04/07 00:01:06;;;;;;;1.60;1.10;;;10.20;99.90;;;;;;4988846;28;21912;-89
2022/04/07 00:03:32;;;;;;;1.23;0.87;;;10.20;99.90;;;;;;4975650;28;20183;-88
2022/04/07 00:05:57;;;;;;;1.37;1.27;;;10.20;99.90;;;;;;4969159;28;20831;-88
2022/04/07 00:08:23;;;;;;;1.40;1.30;;;10.20;99.90;;;;;;4980333;28;20649;-89
2022/04/07 00:10:50;;;;;;;1.23;1.20;;;10.20;99.90;;;;;;4987553;28;20177;-88
2022/04/07 00:13:16;;;;;;;1.03;1.03;;;10.20;99.90;;;;;;4982160;28;20181;-89
2022/04/07 00:15:42;;;;;;;1.10;1.10;;;10.20;99.90;;;;;;4999492;28;20485;-89
2022/04/07 00:18:08;;;;;;;1.10;1.10;;;10.20;99.90;;;;;;4989816;28;21071;-89
2022/04/07 00:20:34;;;;;;;1.53;1.20;;;10.20;99.90;;;;;;4984868;28;20455;-88
2022/04/07 00:23:01;;;;;;;0.97;0.87;;;10.20;99.90;;;;;;4986169;28;20836;-88
2022/04/07 00:25:27;;;;;;;1.33;1.23;;;10.20;99.90;;;;;;4986881;28;20443;-89
2022/04/07 00:27:53;;;;;;;1.00;0.90;;;10.20;99.90;;;;;;4965053;28;20481;-88
2022/04/07 00:30:20;;;;;;;1.37;1.00;;;10.20;99.90;;;;;;4981338;28;20189;-88
2022/04/07 00:32:47;;;;;;;1.00;1.00;;;10.10;99.90;;;;;;4982072;28;20454;-89
2022/04/07 00:35:13;;;;;;;1.20;1.10;;;10.10;99.90;;;;;;4990262;28;20475;-89
2022/04/07 00:37:39;;;;;;;1.60;1.00;;;10.10;99.90;;;;;;4993630;28;20996;-89
2022/04/07 00:40:06;;;;;;;1.10;1.10;;;10.10;99.90;;;;;;4980558;28;20185;-88
2022/04/07 00:42:32;;;;;;;1.20;1.10;;;10.00;99.90;;;;;;4972536;28;20634;-88
2022/04/07 00:44:58;;;;;;;1.13;1.13;;;10.00;99.90;;;;;;4993435;28;20959;-88
2022/04/07 00:47:25;;;;;;;0.73;0.73;;;9.90;99.90;;;;;;4983267;28;20455;-88
2022/04/07 00:49:52;;;;;;;0.90;0.90;;;9.80;99.90;;;;;;4966592;28;20534;-88
2022/04/07 00:52:19;;;;;;;1.17;1.00;;;9.70;99.90;;;;;;4972996;28;20451;-89
2022/04/07 00:54:45;;;;;;;1.57;0.90;;;9.70;99.90;;;;;;4988281;28;20444;-88
2022/04/07 00:57:10;;;;;;;1.33;1.23;;;9.60;99.90;;;;;;4973728;28;20492;-88
2022/04/07 00:59:39;;;;;;;1.53;1.13;;;9.50;99.90;;;;;;4984273;28;21083;-89
2022/04/07 01:02:06;;;;;;;1.00;0.93;;;9.50;99.90;;;;;;4975243;28;20195;-89
2022/04/07 01:04:32;;;;;;;0.87;0.87;;;9.40;99.90;;;;;;4983045;28;20726;-88
2022/04/07 01:07:01;;;;;;;0.90;0.90;;;9.40;99.90;;;;;;4975878;28;20699;-89
2022/04/07 01:09:28;;;;;;;2.10;1.13;;;9.30;99.90;;;;;;4976091;28;21122;-89
2022/04/07 01:11:54;;;;;;;1.03;1.03;;;9.30;99.90;;;;;;4962547;28;20453;-89
2022/04/07 01:14:22;;;;;;;1.50;0.90;;;9.30;99.90;;;;;;4976481;28;20473;-89
2022/04/07 01:16:50;;;;;;;1.00;1.00;;;9.30;99.90;;;;;;4982298;28;20568;-88
2022/04/07 01:19:16;;;;;;;1.50;1.40;;;9.20;99.90;;;;;;4985678;28;20184;-89
2022/04/07 01:21:45;;;;;;;1.13;1.00;;;9.30;99.90;;;;;;4986112;28;20470;-89
2022/04/07 01:24:12;;;;;;;0.83;0.83;;;9.30;99.90;;;;;;4971271;28;20220;-89
2022/04/07 01:26:41;;;;;;;1.93;1.10;;;9.30;99.90;;;;;;4970652;28;20954;-89
2022/04/07 01:29:16;;;;;;;1.40;1.30;;;9.30;99.90;;;;;;4969441;28;20446;-89
2022/04/07 01:31:49;;;;;;;1.40;1.30;;;9.30;99.90;;;;;;4971163;28;20482;-88
2022/04/07 01:34:24;;;;;;;1.30;1.10;;;9.30;99.90;;;;;;4972071;28;20514;-88
2022/04/07 01:36:57;;;;;;;1.07;1.07;;;9.30;99.90;;;;;;4979228;28;21011;-88
2022/04/07 01:39:27;;;;;;;0.80;0.80;;;9.30;99.90;;;;;;4965400;28;20444;-88
2022/04/07 01:41:54;;;;;;;1.00;1.00;;;9.30;99.90;;;;;;4967029;28;20456;-87
2022/04/07 01:44:22;;;;;;;2.00;1.10;;;9.40;99.90;;;;;;4967072;28;20444;-88
2022/04/07 01:46:48;;;;;;;1.00;1.00;;;9.40;99.90;;;;;;4982989;28;21094;-87
2022/04/07 01:49:15;;;;;;;1.03;0.93;;;9.40;99.90;;;;;;4978645;28;22012;-88
2022/04/07 01:51:42;;;;;;;1.00;1.00;;;9.40;99.90;;;;;;4971119;28;20447;-88
2022/04/07 01:54:11;;;;;;;0.67;0.67;;;9.40;99.90;;;;;;4990010;28;20537;-88
2022/04/07 01:56:54;;;;;;;0.80;0.80;;;9.40;99.90;;;;;;4966053;28;20522;-88
2022/04/07 01:59:21;;;;;;;1.07;0.97;;;9.50;99.90;;;;;;4963172;28;20444;-88
2022/04/07 02:01:47;;;;;;;0.90;0.90;;;9.60;99.90;;;;;;4976034;28;20678;-88
2022/04/07 02:04:13;;;;;;;0.87;0.87;;;9.70;99.90;;;;;;4975837;28;20447;-88
2022/04/07 02:06:38;;;;;;;1.00;1.00;;;9.70;99.90;;;;;;4977749;28;20203;-88
2022/04/07 02:09:06;;;;;;;0.90;0.90;;;9.70;99.90;;;;;;4964897;28;20211;-88
2022/04/07 02:11:37;;;;;;;1.40;0.80;;;9.70;99.90;;;;;;4991493;28;20277;-88
2022/04/07 02:14:05;;;;;;;0.80;0.80;;;9.80;99.90;;;;;;4962054;28;21212;-88
2022/04/07 02:16:33;;;;;;;0.90;0.87;;;9.80;99.90;;;;;;4981243;28;20516;-87
2022/04/07 02:18:59;;;;;;;1.00;0.70;;;9.80;99.90;;;;;;4969970;28;20435;-88
2022/04/07 02:21:25;;;;;;;0.90;0.77;;;9.80;99.90;;;;;;4993262;28;20521;-88
2022/04/07 02:23:59;;;;;;;0.97;0.70;;;9.70;99.90;;;;;;4985303;28;20662;-88
2022/04/07 02:26:38;;;;;;;0.70;0.70;;;9.70;99.90;;;;;;4984707;28;20699;-87
2022/04/07 02:29:05;;;;;;;0.60;0.60;;;9.70;99.90;;;;;;4967793;28;21170;-87
2022/04/07 02:31:30;;;;;;;0.60;0.60;;;9.60;99.90;;;;;;4966076;28;20745;-87
2022/04/07 02:33:56;;;;;;;0.83;0.83;;;9.60;99.90;;;;;;4966864;28;20524;-88
2022/04/07 02:36:21;;;;;;;0.50;0.50;;;9.60;99.90;;;;;;4980846;28;20266;-88
2022/04/07 02:38:50;;;;;;;0.50;0.50;;;9.60;99.90;;;;;;4972276;28;20234;-89
2022/04/07 02:41:18;;;;;;;0.80;0.80;;;9.60;99.90;;;;;;4979389;28;20252;-88
2022/04/07 02:43:46;;;;;;;1.17;0.73;;;9.60;99.90;;;;;;4977692;28;20458;-88
2022/04/07 02:46:13;;;;;;;0.70;0.63;;;9.70;99.90;;;;;;4984754;28;20463;-87
2022/04/07 02:48:39;;;;;;;0.50;0.50;;;9.60;99.90;;;;;;4976646;28;20483;-88
2022/04/07 02:51:05;;;;;;;0.67;0.67;;;9.70;99.90;;;;;;4979231;28;20547;-88
2022/04/07 02:53:31;;;;;;;0.60;0.60;;;9.70;99.90;;;;;;4987762;28;20392;-88
2022/04/07 02:55:57;;;;;;;0.60;0.60;;;9.70;99.90;;;;;;4993818;28;20217;-88
2022/04/07 02:58:25;;;;;;;0.80;0.80;;;9.70;99.90;;;;;;4984814;28;20772;-88
2022/04/07 03:00:51;;;;;;;0.60;0.60;;;9.70;99.90;;;;;;5011372;28;20189;-89
2022/04/07 03:03:16;;;;;;;1.37;0.50;;;9.70;99.90;;;;;;4985844;28;20649;-89
2022/04/07 03:05:59;;;;;;;0.50;0.50;;;9.70;99.90;;;;;;4972977;28;20252;-89
2022/04/07 03:08:24;;;;;;;0.40;0.40;;;9.70;99.90;;;;;;4982185;28;20420;-89
2022/04/07 03:10:50;;;;;;;0.53;0.53;;;9.70;99.90;;;;;;4972861;28;20451;-88
2022/04/07 03:13:16;;;;;;;0.50;0.50;;;9.80;99.90;;;;;;4961232;28;20192;-88
2022/04/07 03:15:42;;;;;;;1.37;0.50;;;9.70;99.90;;;;;;4975303;28;20214;-88
2022/04/07 03:18:07;;;;;;;0.70;0.60;;;9.70;99.90;;;;;;4971606;28;20458;-87
2022/04/07 03:20:33;;;;;;;0.50;0.50;;;9.80;99.90;;;;;;4984780;28;20213;-89
2022/04/07 03:23:00;;;;;;;0.50;0.50;;;9.80;99.90;;;;;;4990815;28;20190;-84
2022/04/07 03:25:25;;;;;;;0.60;0.60;;;9.80;99.90;;;;;;4996441;28;20194;-84
2022/04/07 03:27:51;;;;;;;1.60;0.67;;;9.80;99.90;;;;;;4968862;28;20452;-84
2022/04/07 03:30:17;;;;;;;1.20;0.77;;;9.70;99.90;;;;;;4990598;28;20195;-84
2022/04/07 03:32:42;;;;;;;0.60;0.60;;;9.70;99.90;;;;;;4994873;28;20469;-86
2022/04/07 03:35:08;;;;;;;1.10;0.60;;;9.70;99.90;;;;;;4985930;28;20468;-83
2022/04/07 03:37:33;;;;;;;0.50;0.50;;;9.70;99.90;;;;;;5002487;28;20192;-85
2022/04/07 03:39:59;;;;;;;0.70;0.60;;;9.70;99.90;;;;;;4980741;28;21221;-84
2022/04/07 03:42:24;;;;;;;1.30;0.53;;;9.70;99.90;;;;;;4980068;28;20558;-84
2022/04/07 03:44:50;;;;;;;0.70;0.50;;;9.70;99.90;;;;;;4984459;28;20189;-84
2022/04/07 03:47:16;;;;;;;0.63;0.60;;;9.70;99.90;;;;;;4985465;28;20195;-84
2022/04/07 03:49:41;;;;;;;3.70;0.60;;;9.70;99.90;;;;;;4982123;28;20656;-85
2022/04/07 03:52:08;;;;;;;0.60;0.60;;;9.70;99.90;;;;;;4986233;28;20804;-84
2022/04/07 03:54:33;;;;;;;0.60;0.60;;;9.70;99.90;;;;;;4993060;28;20209;-84
2022/04/07 03:57:01;;;;;;;1.53;0.60;;;9.70;99.90;;;;;;4969623;28;20860;-85
2022/04/07 03:59:27;;;;;;;0.40;0.30;;;9.70;99.90;;;;;;4987885;28;20196;-84
2022/04/07 04:01:52;;;;;;;0.50;0.50;;;9.70;99.90;;;;;;4992809;28;20476;-85
2022/04/07 04:04:20;;;;;;;0.60;0.60;;;9.60;99.90;;;;;;4977321;28;20213;-84
2022/04/07 04:06:46;;;;;;;0.87;0.50;;;9.60;99.90;;;;;;4981815;28;20185;-84
2022/04/07 04:09:11;;;;;;;1.33;0.60;;;9.60;99.90;;;;;;4985916;28;20489;-84
2022/04/07 04:11:38;;;;;;;0.40;0.40;;;9.60;99.90;;;;;;4981142;28;20671;-84
2022/04/07 04:14:04;;;;;;;0.50;0.50;;;9.50;99.90;;;;;;4987460;28;21317;-84
2022/04/07 04:16:30;;;;;;;0.80;0.60;;;9.40;99.90;;;;;;4982599;28;20569;-84
2022/04/07 04:18:58;;;;;;;1.00;0.50;;;9.40;99.90;;;;;;4982737;28;23431;-85
2022/04/07 04:21:39;;;;;;;0.50;0.50;;;9.30;99.90;;;;;;4976667;28;20479;-85
2022/04/07 04:24:10;;;;;;;0.70;0.70;;;9.30;99.90;;;;;;4974489;28;20439;-84
2022/04/07 04:26:36;;;;;;;0.80;0.77;;;9.30;99.90;;;;;;4983340;28;20539;-84
2022/04/07 04:29:02;;;;;;;0.80;0.80;;;9.30;99.90;;;;;;4975297;28;21309;-84
2022/04/07 04:31:28;;;;;;;0.70;0.70;;;9.30;99.90;;;;;;4968386;28;20949;-85
2022/04/07 04:33:54;;;;;;;0.83;0.80;;;9.30;99.90;;;;;;4975260;28;20442;-84
2022/04/07 04:36:21;;;;;;;2.43;0.80;;;9.20;99.90;;;;;;4974111;28;20243;-83
2022/04/07 04:38:47;;;;;;;1.07;0.60;;;9.20;99.90;;;;;;4973573;28;20550;-84
2022/04/07 04:41:14;;;;;;;0.60;0.60;;;9.30;99.90;;;;;;4969926;28;21958;-84
2022/04/07 04:43:39;;;;;;;0.93;0.63;;;9.20;99.90;;;;;;4980215;28;20565;-84
2022/04/07 04:46:06;;;;;;;1.10;0.60;;;9.20;99.90;;;;;;4991750;28;20440;-84
2022/04/07 04:48:32;;;;;;;2.13;0.70;;;9.10;99.90;;;;;;4966358;28;20183;-82
2022/04/07 04:50:57;;;;;;;0.87;0.87;;;9.10;99.90;;;;;;4962459;28;20456;-83
2022/04/07 04:53:24;;;;;;;0.87;0.70;;;9.10;99.90;;;;;;4976033;28;20307;-82
2022/04/07 04:55:52;;;;;;;0.70;0.70;;;9.10;99.90;;;;;;5000395;28;21029;-83
2022/04/07 04:58:18;;;;;;;0.90;0.90;;;9.10;99.90;;;;;;4975586;28;20507;-83
2022/04/07 05:00:43;;;;;;;0.50;0.50;;;9.10;99.90;;;;;;4987284;28;21421;-84
2022/04/07 05:03:11;;;;;;;0.60;0.60;;;9.10;99.90;;;;;;4987523;28;20698;-84
2022/04/07 05:06:05;;;;;;;1.27;0.80;;;9.20;99.90;;;;;;5013416;28;20547;-83
2022/04/07 05:08:44;;;;;;;0.53;0.53;;;9.20;99.90;;;;;;4995280;28;20440;-84
2022/04/07 05:11:12;;;;;;;0.87;0.47;;;9.30;99.90;;;;;;5002274;28;20519;-84
2022/04/07 05:13:47;;;;;;;0.80;0.80;;;9.40;99.90;;;;;;4996467;28;20184;-83
2022/04/07 05:16:15;;;;;;;0.50;0.50;;;9.40;99.90;;;;;;5000338;28;20503;-84
2022/04/07 05:18:46;;;;;;;0.70;0.40;;;9.40;99.90;;;;;;5002453;28;20514;-84
2022/04/07 05:21:13;;;;;;;0.67;0.40;;;9.50;99.90;;;;;;5003564;28;20470;-84
2022/04/07 05:23:44;;;;;;;0.60;0.50;;;9.50;99.90;;;;;;5000174;28;21107;-83
2022/04/07 05:26:13;;;;;;;1.33;0.77;;;9.60;99.90;;;;;;4999332;28;20439;-87
2022/04/07 05:28:42;;;;;;;0.60;0.60;;;9.70;99.90;;;;;;5002327;28;21484;-87
2022/04/07 05:31:10;;;;;;;0.70;0.70;;;9.70;99.90;;;;;;4988506;28;20445;-84
2022/04/07 05:33:38;;;;;;;1.70;0.70;;;9.80;99.90;;;;;;4965593;28;20449;-84
2022/04/07 05:36:12;;;;;;;1.63;0.87;;;9.70;99.90;;;;;;4968859;28;20695;-87
2022/04/07 05:38:38;;;;;;;0.50;0.50;;;9.80;99.90;;;;;;4976549;28;20522;-85
2022/04/07 05:41:04;;;;;;;0.60;0.50;;;9.80;99.90;;;;;;4980475;28;20444;-87
2022/04/07 05:43:29;;;;;;;0.60;0.60;;;9.80;99.90;;;;;;4975356;28;20192;-87
2022/04/07 05:45:55;;;;;;;0.70;0.70;;;9.90;99.90;;;;;;4968453;28;20287;-90
2022/04/07 05:48:20;;;;;;;0.73;0.50;;;9.80;99.90;;;;;;4991037;28;20534;-88
2022/04/07 05:50:46;;;;;;;1.50;0.80;;;9.80;99.90;;;;;;4971882;28;20188;-88
2022/04/07 05:53:12;;;;;;;0.60;0.60;;;9.90;99.90;;;;;;4989806;28;20181;-84
2022/04/07 05:55:38;;;;;;;0.57;0.40;;;9.90;99.90;;;;;;5004240;28;20221;-87
2022/04/07 05:58:06;;;;;;;0.60;0.60;;;9.90;99.90;;;;;;4998251;28;20491;-88
2022/04/07 06:00:31;;;;;;;1.37;0.50;;;10.00;99.90;;;;;;4990231;28;20294;-87
2022/04/07 06:02:57;;;;;;;0.50;0.43;;;10.10;99.90;;;;;;4996092;28;20820;-88
2022/04/07 06:05:23;;;;;;;0.60;0.60;;;10.20;99.90;;;;;;5002134;28;20181;-88
2022/04/07 06:07:48;;;;;;;0.57;0.53;;;10.30;99.90;;;;;;4993360;28;20221;-87
2022/04/07 06:10:15;;;;;;;0.93;0.40;;;10.40;99.90;;;;;;4993265;28;20655;-87
2022/04/07 06:12:43;;;;;;;0.37;0.37;;;10.60;99.90;;;;;;4985853;28;20180;-87
2022/04/07 06:15:10;;;;;;;0.40;0.40;;;10.70;99.90;;;;;;4983467;28;20471;-87
2022/04/07 06:17:38;;;;;;;0.30;0.30;;;10.60;99.90;;;;;;4998819;28;20452;-87
2022/04/07 06:20:07;;;;;;;0.40;0.30;;;10.60;99.90;;;;;;4985235;28;20455;-88
2022/04/07 06:22:34;;;;;;;0.60;0.37;;;10.80;99.90;;;;;;4999082;28;20469;-89
2022/04/07 06:25:02;;;;;;;0.70;0.40;;;11.00;99.90;;;;;;4984845;28;20472;-87
2022/04/07 06:27:44;;;;;;;1.00;0.30;;;11.00;99.90;;;;;;4990486;28;20458;-89
2022/04/07 06:30:16;;;;;;;0.30;0.30;;;11.20;99.90;;;;;;4986998;28;20458;-88
2022/04/07 06:32:42;;;;;;;0.70;0.43;;;11.20;99.90;;;;;;4985299;28;20432;-87
2022/04/07 06:35:14;;;;;;;0.53;0.43;;;11.30;99.90;;;;;;5004859;28;20494;-88
2022/04/07 06:37:56;;;;;;;2.67;0.40;;;11.20;99.90;;;;;;4986879;28;20444;-85
2022/04/07 06:40:26;;;;;;;0.77;0.63;;;11.20;99.90;;;;;;4990262;28;20509;-86
2022/04/07 06:42:53;;;;;;;0.67;0.50;;;11.10;99.90;;;;;;4996957;28;20447;-86
2022/04/07 06:45:19;;;;;;;0.53;0.40;;;11.10;99.90;;;;;;4995850;28;20439;-87
2022/04/07 06:47:45;;;;;;;0.53;0.53;;;11.10;99.90;;;;;;4996218;28;20455;-87
2022/04/07 06:50:14;;;;;;;0.63;0.60;;;11.10;99.90;;;;;;4988145;28;20176;-88
2022/04/07 06:52:51;;;;;;;0.40;0.30;;;11.20;99.90;;;;;;4999568;28;20225;-88
2022/04/07 06:55:17;;;;;;;0.40;0.33;;;11.30;99.90;;;;;;4993561;28;20451;-89
2022/04/07 06:58:06;;;;;;;0.47;0.47;;;11.30;99.90;;;;;;5003697;28;20499;-91
2022/04/07 07:00:58;;;;;;;1.27;0.30;;;11.20;99.90;;;;;;5000601;28;20464;-96
2022/04/07 07:04:09;;;;;;;0.30;0.30;;;11.10;99.90;;;;;;4991885;28;20445;-93
2022/04/07 07:06:35;;;;;;;1.23;0.33;;;11.10;99.90;;;;;;4990032;28;20479;-90
2022/04/07 07:09:00;;;;;;;0.40;0.40;;;11.10;99.90;;;;;;4983787;28;20887;-90
2022/04/07 07:11:45;;;;;;;0.40;0.40;;;11.10;99.90;;;;;;4983736;28;20193;-90
2022/04/07 07:14:22;;;;;;;0.40;0.33;;;11.10;99.90;;;;;;5001724;28;20187;-93
2022/04/07 07:16:48;;;;;;;0.33;0.33;;;11.20;99.90;;;;;;4993594;28;21072;-87
2022/04/07 07:19:16;;;;;;;0.57;0.30;;;11.20;99.90;;;;;;4990702;28;20431;-88
2022/04/07 07:21:41;;;;;;;1.57;0.37;;;11.20;99.90;;;;;;4999065;28;20221;-90
2022/04/07 07:24:07;;;;;;;0.80;0.40;;;11.20;99.90;;;;;;5000044;28;20984;-89
2022/04/07 07:26:33;;;;;;;0.67;0.53;;;11.20;99.90;;;;;;4988143;28;20308;-89
2022/04/07 07:28:59;;;;;;;0.30;0.30;;;11.40;99.90;;;;;;4990861;28;20444;-89
2022/04/07 07:31:24;;;;;;;1.37;0.40;;;11.50;99.90;;;;;;4997197;28;20232;-87
2022/04/07 07:33:50;;;;;;;0.70;0.30;;;11.60;99.90;;;;;;4985134;28;20471;-89
2022/04/07 07:36:16;;;;;;;1.70;0.50;;;11.60;99.90;;;;;;4986335;28;20667;-90
2022/04/07 07:38:41;;;;;;;0.93;0.50;;;11.60;99.90;;;;;;4987201;28;20177;-89
2022/04/07 07:41:07;;;;;;;0.53;0.33;;;11.60;99.90;;;;;;5000290;28;20181;-88
2022/04/07 07:43:32;;;;;;;0.33;0.33;;;11.60;99.90;;;;;;4996699;28;20575;-88
2022/04/07 07:45:58;;;;;;;2.50;0.30;;;11.60;99.90;;;;;;4989505;28;20189;-86
2022/04/07 07:48:25;;;;;;;0.60;0.30;;;11.80;99.90;;;;;;4992773;28;20659;-90
2022/04/07 07:50:50;;;;;;;0.30;0.30;;;11.80;99.90;;;;;;4985206;28;20576;-91
2022/04/07 07:53:30;;;;;;;0.37;0.33;;;11.90;99.90;;;;;;4986802;28;20482;-92
2022/04/07 07:55:56;;;;;;;0.80;0.80;;;12.00;99.90;;;;;;5004400;28;20303;-95
2022/04/07 07:58:25;;;;;;;0.60;0.60;;;11.90;99.90;;;;;;4991106;28;20516;-93
2022/04/07 08:00:50;;;;;;;6.83;0.80;;;11.90;99.90;;;;;;4989640;28;20448;-91
2022/04/07 08:03:16;;;;;;;1.63;0.40;;;12.00;99.90;;;;;;4981953;28;20483;-89
2022/04/07 08:05:42;;;;;;;0.87;0.80;;;12.10;99.90;;;;;;4976439;28;20198;-87
2022/04/07 08:08:07;;;;;;;0.60;0.60;;;12.20;99.90;;;;;;4982302;28;20287;-89
2022/04/07 08:10:33;;;;;;;1.87;0.40;;;12.20;99.90;;;;;;4974906;28;20722;-88
2022/04/07 08:12:59;;;;;;;1.53;0.30;;;12.10;99.90;;;;;;4981685;28;20186;-89
2022/04/07 08:15:27;;;;;;;0.40;0.40;;;12.00;99.90;;;;;;4983917;28;20776;-88
2022/04/07 08:17:52;;;;;;;3.10;0.43;;;12.10;99.90;;;;;;4985691;28;21438;-90
2022/04/07 08:20:18;;;;;;;2.60;0.60;;;12.10;99.90;;;;;;4976127;28;20432;-92
2022/04/07 08:22:44;;;;;;;1.73;0.40;;;12.10;99.90;;;;;;4986034;28;20189;-88
2022/04/07 08:25:10;;;;;;;1.20;0.43;;;12.20;99.90;;;;;;4992326;28;20177;-90
2022/04/07 08:27:36;;;;;;;0.90;0.40;;;12.30;99.90;;;;;;4986136;28;20209;-91
2022/04/07 08:30:02;;;;;;;2.77;0.70;;;12.30;99.90;;;;;;4978325;28;21120;-90
2022/04/07 08:32:31;;;;;;;0.70;0.40;;;12.30;99.90;;;;;;4993128;28;20531;-91
2022/04/07 08:34:58;;;;;;;0.30;0.30;;;12.40;99.90;;;;;;4955817;28;1336060;-94
2022/04/07 08:37:26;;;;;;;0.93;0.47;;;12.40;99.90;;;;;;4990984;28;20483;-90
2022/04/07 08:39:52;;;;;;;0.67;0.40;;;12.30;99.90;;;;;;4972360;28;20459;-89
2022/04/07 08:42:26;;;;;;;0.37;0.37;;;12.40;99.90;;;;;;4979289;28;20486;-89
2022/04/07 08:44:52;;;;;;;0.80;0.30;;;12.30;99.90;;;;;;4979152;28;20193;-92
2022/04/07 08:47:20;;;;;;;0.73;0.40;;;12.30;99.90;;;;;;4980693;28;20458;-91
2022/04/07 08:49:48;;;;;;;0.50;0.50;;;12.30;99.90;;;;;;4989104;28;20440;-89
2022/04/07 08:52:15;;;;;;;0.97;0.43;;;12.40;99.90;;;;;;4981218;28;20536;-90
2022/04/07 08:54:44;;;;;;;1.23;0.40;;;12.40;99.90;;;;;;4973283;28;20496;-92
2022/04/07 08:57:09;;;;;;;0.50;0.40;;;12.30;99.90;;;;;;4982691;28;20475;-92
2022/04/07 08:59:35;;;;;;;1.03;0.40;;;12.50;99.90;;;;;;4983540;28;20467;-90
2022/04/07 09:02:02;;;;;;;0.90;0.40;;;12.70;99.90;;;;;;4982475;28;20276;-91
2022/04/07 09:04:36;;;;;;;0.60;0.60;;;12.80;99.90;;;;;;4974287;28;20185;-89
2022/04/07 09:07:02;;;;;;;0.50;0.40;;;13.20;99.90;;;;;;4975908;28;20513;-91
2022/04/07 09:09:44;;;;;;;0.50;0.40;;;13.30;99.90;;;;;;4982292;28;20439;-89
2022/04/07 09:12:10;;;;;;;0.73;0.70;;;13.50;99.90;;;;;;4976827;28;20437;-90
2022/04/07 09:17:21;;;;;;;1.07;0.50;;;13.30;99.90;;;;;;5005848;28;20227;-88
2022/04/07 09:19:50;;;;;;;2.50;0.30;;;13.20;99.90;;;;;;4999268;28;20436;-89
2022/04/07 09:22:15;;;;;;;1.27;0.30;;;13.20;99.90;;;;;;4998076;28;20200;-89
2022/04/07 09:24:42;;;;;;;3.50;0.60;;;13.10;99.90;;;;;;4995319;28;20443;-89
2022/04/07 09:27:12;;;;;;;0.40;0.30;;;12.90;99.90;;;;;;5002780;28;20192;-89
2022/04/07 09:29:39;;;;;;;0.30;0.20;;;12.70;99.90;;;;;;5022021;28;20494;-90
2022/04/07 09:32:15;;;;;;;1.57;0.30;;;12.70;99.90;;;;;;5009368;28;20507;-90
2022/04/07 09:34:42;;;;;;;1.37;0.40;;;12.80;99.90;;;;;;4991143;28;20480;-90
2022/04/07 09:37:09;;;;;;;1.30;0.40;;;12.90;99.90;;;;;;4999872;28;21668;-90
2022/04/07 09:39:39;;;;;;;1.13;0.50;;;12.90;99.90;;;;;;5003960;28;20519;-90
2022/04/07 09:42:27;;;;;;;0.90;0.53;;;13.20;99.90;;;;;;5000366;28;20577;-89
2022/04/07 09:44:59;;;;;;;5.70;0.60;;;13.30;99.90;;;;;;4994333;28;20574;-90
2022/04/07 09:47:36;;;;;;;3.80;0.40;;;13.30;99.90;;;;;;5001819;28;20447;-91
2022/04/07 09:50:02;;;;;;;0.77;0.50;;;13.30;99.90;;;;;;5001224;28;25199;-91
2022/04/07 09:52:29;;;;;;;0.80;0.80;;;13.30;99.90;;;;;;5003654;28;21394;-90
2022/04/07 09:55:01;;;;;;;0.60;0.43;;;13.30;99.90;;;;;;5010568;28;20453;-92
2022/04/07 09:57:27;;;;;;;0.70;0.40;;;13.20;99.90;;;;;;5007524;28;20570;-89
2022/04/07 09:59:55;;;;;;;0.60;0.30;;;13.10;99.90;;;;;;4990996;28;20441;-94
2022/04/07 10:02:21;;;;;;;0.50;0.40;;;13.10;99.90;;;;;;4993823;28;20840;-92
2022/04/07 10:04:47;;;;;;;0.80;0.33;;;13.00;99.90;;;;;;4997728;28;20515;-94
2022/04/07 10:07:15;;;;;;;0.50;0.50;;;12.90;99.90;;;;;;4999833;28;20448;-91
2022/04/07 10:09:48;;;;;;;0.60;0.40;;;13.10;99.90;;;;;;5001781;28;20435;-95
2022/04/07 10:12:26;;;;;;;0.60;0.43;;;13.20;99.90;;;;;;4993403;28;20446;-96
2022/04/07 10:14:55;;;;;;;0.97;0.30;;;13.40;99.90;;;;;;5014195;28;20479;-96
2022/04/07 10:17:24;;;;;;;1.03;0.53;;;13.40;99.90;;;;;;5012290;28;20486;-93
2022/04/07 10:19:54;;;;;;;1.30;0.50;;;13.40;99.90;;;;;;5019339;28;20434;-94
2022/04/07 10:22:40;;;;;;;0.30;0.30;;;13.20;99.90;;;;;;4988087;28;20767;-89
2022/04/07 10:25:07;;;;;;;1.17;0.53;;;13.10;99.90;;;;;;4991486;28;20435;-86
2022/04/07 10:27:42;;;;;;;0.33;0.33;;;13.10;99.90;;;;;;4986344;28;20462;-87
2022/04/07 10:30:11;;;;;;;0.60;0.50;;;13.20;99.90;;;;;;4998931;28;20443;-85
2022/04/07 10:32:46;;;;;;;1.27;0.37;;;13.30;99.90;;;;;;5006408;28;20459;-88
2022/04/07 10:35:37;;;;;;;0.50;0.37;;;13.40;99.90;;;;;;4992989;28;20806;-89
2022/04/07 10:38:06;;;;;;;1.17;0.30;;;13.50;99.80;;;;;;5006955;28;20526;-86
2022/04/07 10:40:37;;;;;;;2.10;0.50;;;13.80;99.70;;;;;;5003611;28;20530;-90
2022/04/07 10:43:25;;;;;;;0.50;0.30;;;13.80;99.60;;;;;;5019091;28;20950;-88
2022/04/07 10:45:52;;;;;;;0.60;0.40;;;13.60;99.40;;;;;;4994096;28;20456;-88
2022/04/07 10:48:50;;;;;;;0.30;0.30;;;13.50;99.30;;;;;;5014559;28;20435;-90
2022/04/07 10:51:18;;;;;;;0.60;0.40;;;13.60;99.70;;;;;;4953415;28;20614;-87
2022/04/07 10:53:53;;;;;;;1.40;1.20;;;13.80;99.60;;;;;;4998061;28;20463;-91
2022/04/07 10:56:34;;;;;;;1.50;1.20;;;13.80;99.90;;;;;;5003328;28;20590;-92
2022/04/07 10:59:23;;;;;;;1.47;1.10;;;14.00;99.20;;;;;;5005837;28;20443;-90
2022/04/07 11:01:56;;;;;;;2.00;0.40;;;14.10;99.40;;;;;;5013626;28;20431;-92
2022/04/07 11:04:35;;;;;;;1.60;0.57;;;14.20;98.70;;;;;;5004517;28;20551;-91
2022/04/07 11:07:18;;;;;;;0.60;0.60;;;14.20;98.80;;;;;;5008035;28;20766;-89
2022/04/07 11:10:00;;;;;;;0.50;0.50;;;14.00;99.80;;;;;;5003657;28;20534;-88
2022/04/07 11:12:42;;;;;;;1.80;0.30;;;13.80;99.80;;;;;;4997127;28;20451;-90
2022/04/07 11:15:16;;;;;;;4.50;0.30;;;13.90;99.70;;;;;;5013081;28;20945;-88
2022/04/07 11:17:42;;;;;;;0.57;0.23;;;14.00;99.30;;;;;;5019331;28;20454;-90
2022/04/07 11:20:15;;;;;;;0.50;0.27;;;14.00;99.00;;;;;;5007987;28;20938;-93
2022/04/07 11:22:57;;;;;;;1.60;0.27;;;14.10;98.80;;;;;;5000231;28;20185;-90
2022/04/07 11:26:09;;;;;;;0.30;0.30;;;14.30;98.40;;;;;;5016221;28;20455;-87
2022/04/07 11:28:37;;;;;;;0.33;0.30;;;14.40;99.00;;;;;;4991030;28;20436;-89
2022/04/07 11:31:04;;;;;;;1.37;0.30;;;14.40;98.50;;;;;;5011040;28;20455;-90
2022/04/07 11:33:39;;;;;;;2.13;0.33;;;14.60;98.20;;;;;;5002550;28;20539;-90
2022/04/07 11:36:05;;;;;;;0.47;0.20;;;14.50;98.00;;;;;;5005238;28;21098;-89
2022/04/07 11:38:42;;;;;;;0.30;0.20;;;14.50;98.40;;;;;;5001569;28;20448;-91
2022/04/07 11:41:08;;;;;;;0.70;0.30;;;14.50;98.10;;;;;;5012439;28;20436;-90
2022/04/07 11:43:36;;;;;;;1.43;0.30;;;14.40;98.10;;;;;;5002126;28;20916;-90
2022/04/07 11:46:02;;;;;;;0.30;0.30;;;14.60;97.80;;;;;;4993659;28;20431;-88
2022/04/07 11:48:33;;;;;;;1.30;0.23;;;14.80;97.40;;;;;;5017387;28;20463;-90
2022/04/07 11:51:01;;;;;;;0.40;0.40;;;14.80;97.30;;;;;;5008182;28;20268;-88
2022/04/07 11:53:28;;;;;;;0.30;0.30;;;14.90;97.00;;;;;;4994705;28;20435;-89
2022/04/07 11:55:54;;;;;;;1.10;0.93;;;14.80;97.00;;;;;;5007309;28;20479;-89
2022/04/07 11:58:20;;;;;;;1.00;0.40;;;14.70;96.60;;;;;;5008936;28;20443;-89
2022/04/07 12:00:45;;;;;;;2.70;0.40;;;15.00;97.10;;;;;;5013299;28;20448;-89
2022/04/07 12:03:11;;;;;;;0.40;0.20;;;14.80;96.80;;;;;;4998368;28;20190;-90
2022/04/07 12:05:40;;;;;;;1.27;0.20;;;14.80;97.50;;;;;;5002625;28;20239;-89
2022/04/07 12:08:14;;;;;;;0.93;0.23;;;14.40;97.60;;;;;;5006353;28;20196;-89
2022/04/07 12:10:41;;;;;;;3.30;0.43;;;14.20;97.80;;;;;;5004242;28;20534;-89
2022/04/07 12:13:07;;;;;;;0.40;0.30;;;14.10;98.20;;;;;;5004096;28;20451;-89
2022/04/07 12:15:37;;;;;;;1.23;0.40;;;14.00;98.30;;;;;;5006607;28;20783;-90
2022/04/07 12:18:07;;;;;;;1.03;0.30;;;13.80;98.90;;;;;;5003220;28;20504;-90
2022/04/07 12:20:37;;;;;;;3.60;0.60;;;13.80;99.50;;;;;;5005439;28;20429;-90
2022/04/07 12:23:13;;;;;;;1.53;0.60;;;13.70;99.90;;;;;;5002557;28;20440;-90
2022/04/07 12:25:41;;;;;;;1.03;0.23;;;13.50;99.90;;;;;;5008127;28;20761;-90
2022/04/07 12:28:12;;;;;;;0.37;0.30;;;13.30;99.90;;;;;;5010778;28;20447;-89
2022/04/07 12:30:50;;;;;;;0.40;0.30;;;13.30;99.90;;;;;;5005667;28;20482;-90
2022/04/07 12:33:38;;;;;;;0.30;0.30;;;13.50;99.90;;;;;;4994796;28;20443;-90
2022/04/07 12:36:06;;;;;;;0.40;0.40;;;13.50;99.90;;;;;;5006717;28;21027;-91
2022/04/07 12:38:31;;;;;;;0.50;0.30;;;13.30;99.90;;;;;;5006891;28;20443;-89
2022/04/07 12:41:11;;;;;;;0.40;0.20;;;13.30;99.90;;;;;;4992661;28;20471;-90
2022/04/07 12:43:50;;;;;;;0.30;0.20;;;13.30;99.90;;;;;;5012619;28;20196;-89
2022/04/07 12:46:17;;;;;;;0.60;0.60;;;13.30;99.90;;;;;;4996772;28;20433;-89
2022/04/07 12:49:06;;;;;;;0.20;0.20;;;13.20;99.90;;;;;;4996971;28;20449;-90
2022/04/07 12:51:33;;;;;;;1.17;0.40;;;13.30;99.90;;;;;;5005289;28;20444;-91
2022/04/07 12:54:11;;;;;;;0.40;0.40;;;13.30;99.90;;;;;;5001110;28;20489;-90
2022/04/07 12:56:37;;;;;;;1.67;0.30;;;13.30;99.90;;;;;;5006632;28;20477;-90
2022/04/07 12:59:20;;;;;;;0.83;0.30;;;13.20;99.90;;;;;;4985158;28;20446;-88
2022/04/07 13:01:54;;;;;;;0.80;0.40;;;13.20;99.90;;;;;;4976565;28;20821;-88
2022/04/07 13:04:20;;;;;;;0.30;0.20;;;13.40;99.90;;;;;;4988699;28;20439;-88